Diamond Orchid — 9VNH4 — position and weather

sailwx.info

Track history (hours):
 
Tides and Currents Weather Stations Pressure Air Temp Water Temp Dewpoint Dewpoint Depression Visibility Wind Speed Wind Dir Waves Ship Positions

Diamond Orchid

Last reported at 2015-Feb-01 23:33 UTC. Time now 2015-Feb-02 00:15 UTC.
Position N 33°46' W 118°14'.

Length 144 m; draft 5.5 m.

Type: Tanker. MMSI: 565789000.

Date/timePositionNaut miles runAvg speedWind from/ knotsBaromVisibWave heightAir tempDewpointWater temp
2015-Feb-01 23:33N 33°46' W 118°14'0 0.0
2015-Feb-01 22:33N 33°46' W 118°14'0 0.0
2015-Feb-01 21:33N 33°46' W 118°14'0 0.0
2015-Feb-01 20:33N 33°46' W 118°14'0 0.0
2015-Feb-01 19:33N 33°46' W 118°14'0 0.0
2015-Feb-01 18:33N 33°46' W 118°14'0 0.0
2015-Feb-01 17:33N 33°46' W 118°14'0 0.0
2015-Feb-01 16:21N 33°46' W 118°14'0 0.0
2015-Feb-01 15:33N 33°46' W 118°14'2 2.2
2015-Feb-01 14:33N 33°45' W 118°17'7 7.2
2015-Feb-01 13:33N 33°38' W 118°14'8 7.7
2015-Feb-01 12:33N 33°37' W 118°23'1111.4
2015-Feb-01 11:33N 33°43' W 118°35'1411.9
2015-Feb-01 10:22N 33°50' W 118°50'3813.0
2015-Feb-01 07:29N 34°06' W 119°31'5713.6
2015-Feb-01 03:18N 34°21' W 120°37'810.9
2015-Feb-01 02:33N 34°23' W 120°47'6114.1
2015-Jan-31 22:12N 34°53' W 121°52'914.5
2015-Jan-31 21:33N 34°58' W 122°02'2914.7
2015-Jan-31 19:33N 35°22' W 122°23'1514.9
2015-Jan-31 18:33N 35°34' W 122°33'1514.7
2015-Jan-31 17:33N 35°46' W 122°43'1614.7
2015-Jan-31 16:30N 35°60' W 122°54'1414.6
2015-Jan-31 15:33N 36°11' W 123°03'1514.7
2015-Jan-31 14:33N 36°23' W 123°13'1614.5
2015-Jan-31 13:25N 36°37' W 123°24'1213.7
2015-Jan-31 12:33N 36°49' W 123°25'1414.2
2015-Jan-31 11:33N 37°03' W 123°21'1414.2
2015-Jan-31 10:33N 37°17' W 123°18'1413.9
2015-Jan-31 09:34N 37°30' W 123°12'1313.2
2015-Jan-31 08:34N 37°37' W 122°58'1413.7
2015-Jan-31 07:33N 37°45' W 122°44'1111.0
2015-Jan-31 06:34N 37°48' W 122°31'9 9.2
2015-Jan-31 05:33N 37°45' W 122°20'0 0.3
2015-Jan-31 04:31N 37°45' W 122°20'0 0.0
2015-Jan-31 03:31N 37°45' W 122°20'0 0.0
2015-Jan-31 02:31N 37°45' W 122°20'0 0.0
2015-Jan-31 01:31N 37°45' W 122°20'0 0.1
2015-Jan-31 00:31N 37°45' W 122°20'0 0.1
2015-Jan-30 23:33N 37°45' W 122°20'0 0.0
2015-Jan-30 22:33N 37°45' W 122°20'0 0.0
2015-Jan-30 21:33N 37°45' W 122°20'2 2.2
2015-Jan-30 20:33N 37°47' W 122°21'8 8.1
2015-Jan-30 19:33N 37°55' W 122°24'2 1.9
2015-Jan-30 18:32N 37°55' W 122°22'0 0.0
2015-Jan-30 17:32N 37°55' W 122°22'0 0.0
2015-Jan-30 16:14N 37°55' W 122°22'0 0.0
2015-Jan-30 15:26N 37°55' W 122°22'0 0.0
2015-Jan-30 13:32N 37°55' W 122°22'0 0.0
2015-Jan-30 11:20N 37°55' W 122°22'0 0.0
2015-Jan-30 10:26N 37°55' W 122°22'0 0.0
2015-Jan-30 09:11N 37°55' W 122°22'0 0.0
2015-Jan-30 08:14N 37°55' W 122°22'0 0.0
2015-Jan-30 07:08N 37°55' W 122°22'0 0.0
2015-Jan-30 06:32N 37°55' W 122°22'0 0.0
2015-Jan-30 05:32N 37°55' W 122°22'0 0.0
2015-Jan-30 04:32N 37°55' W 122°22'0 0.0
2015-Jan-30 03:32N 37°55' W 122°22'0 0.0
2015-Jan-30 02:32N 37°55' W 122°22'0 0.0
2015-Jan-30 01:32N 37°55' W 122°22'0 0.0
2015-Jan-30 00:32N 37°55' W 122°22'0 0.0
2015-Jan-29 23:32N 37°55' W 122°22'0 0.0
2015-Jan-29 22:32N 37°55' W 122°22'0 0.0
2015-Jan-29 21:29N 37°55' W 122°22'0 0.0
2015-Jan-29 20:32N 37°55' W 122°22'0 0.0
2015-Jan-29 19:32N 37°55' W 122°22'0 0.0
2015-Jan-29 18:32N 37°55' W 122°22'0 0.0
2015-Jan-29 17:32N 37°55' W 122°22'0 0.0
2015-Jan-29 16:32N 37°55' W 122°22'0 0.0
2015-Jan-29 15:32N 37°55' W 122°22'0 0.0
2015-Jan-29 14:32N 37°55' W 122°22'0 0.2
2015-Jan-29 13:32N 37°55' W 122°22'0 0.3
2015-Jan-29 12:32N 37°55' W 122°22'0 0.0
2015-Jan-29 11:32N 37°55' W 122°22'0 0.0
2015-Jan-29 10:32N 37°55' W 122°22'0 0.0
2015-Jan-29 09:29N 37°55' W 122°22'0 0.0
2015-Jan-29 08:26N 37°55' W 122°22'0 0.0
2015-Jan-29 07:32N 37°55' W 122°22'0 0.0
2015-Jan-29 06:32N 37°55' W 122°22'0 0.0
2015-Jan-29 05:32N 37°55' W 122°22'0 0.0
2015-Jan-29 04:32N 37°55' W 122°22'0 0.0
2015-Jan-29 03:32N 37°55' W 122°22'0 0.0
2015-Jan-29 02:32N 37°55' W 122°22'0 0.0
2015-Jan-29 01:32N 37°55' W 122°22'0 0.0
2015-Jan-29 00:32N 37°55' W 122°22'0 0.0
2015-Jan-28 23:32N 37°55' W 122°22'0 0.0
2015-Jan-28 22:32N 37°55' W 122°22'0 0.0
2015-Jan-28 21:32N 37°55' W 122°22'0 0.0
2015-Jan-28 20:32N 37°55' W 122°22'0 0.0
2015-Jan-28 19:32N 37°55' W 122°22'0 0.0
2015-Jan-28 18:32N 37°55' W 122°22'0 0.0
2015-Jan-28 17:29N 37°55' W 122°22'0 0.0
2015-Jan-28 16:32N 37°55' W 122°22'3 2.8
2015-Jan-28 15:33N 37°54' W 122°25'1010.3
2015-Jan-28 14:33N 37°47' W 122°34'10 9.9
2015-Jan-28 13:33N 37°42' W 122°45'1111.2
2015-Jan-28 12:33N 37°36' W 122°57'1211.9
2015-Jan-28 11:33N 37°30' W 123°10'1312.5
2015-Jan-28 10:33N 37°33' W 123°26'6 6.1
2015-Jan-28 09:31N 37°35' W 123°33'0 0.1
2015-Jan-28 08:04N 37°35' W 123°33'1 0.2
2015-Jan-28 05:16N 37°34' W 123°34'0 0.5
2015-Jan-28 04:22N 37°34' W 123°34'0 0.2
2015-Jan-28 03:27N 37°33' W 123°34'6 6.3
2015-Jan-28 02:33N 37°35' W 123°27'5 4.9
2015-Jan-28 01:31N 37°36' W 123°21'1 0.9
2015-Jan-28 00:31N 37°35' W 123°21'1 0.9
2015-Jan-27 23:19N 37°34' W 123°20'1 0.8
2015-Jan-27 22:31N 37°33' W 123°20'1 0.9
2015-Jan-27 21:31N 37°33' W 123°19'1 1.0
2015-Jan-27 20:19N 37°32' W 123°17'1 0.9
2015-Jan-27 19:31N 37°32' W 123°16'1 0.7
2015-Jan-27 18:31N 37°32' W 123°16'6 6.0
2015-Jan-27 17:34N 37°36' W 123°20'1313.4
2015-Jan-27 16:33N 37°43' W 123°35'1413.5
2015-Jan-27 15:33N 37°50' W 123°50'1110.6
2015-Jan-27 14:33N 37°59' W 123°57'1413.6
2015-Jan-27 13:33N 38°10' W 124°07'1313.5
2015-Jan-27 12:33N 38°21' W 124°16'1413.9
2015-Jan-27 11:33N 38°33' W 124°26'35113.0
2015-Jan-26 08:33N 44°19' W 125°40'1713.0
2015-Jan-26 07:14N 44°37' W 125°40'1512.8
2015-Jan-26 06:04N 44°50' W 125°31'713.5
2015-Jan-26 05:33N 44°56' W 125°25'1313.4
2015-Jan-26 04:33N 45°07' W 125°15'1313.1
2015-Jan-26 03:33N 45°18' W 125°05'1312.7
2015-Jan-26 02:33N 45°28' W 124°54'1312.9
2015-Jan-26 01:33N 45°39' W 124°44'1313.3
2015-Jan-26 00:33N 45°50' W 124°34'1413.5
2015-Jan-25 23:33N 46°01' W 124°23'1313.1
2015-Jan-25 22:33N 46°12' W 124°13'10 9.9
2015-Jan-25 21:34N 46°14' W 123°59'9 9.5
2015-Jan-25 20:34N 46°13' W 123°45'1313.1
2015-Jan-25 19:33N 46°15' W 123°26'10 9.6
2015-Jan-25 18:33N 46°10' W 123°14'1111.3
2015-Jan-25 17:33N 46°07' W 122°59'9 9.0
2015-Jan-25 16:32N 45°59' W 122°51'1111.0
2015-Jan-25 15:33N 45°49' W 122°48'1010.4
2015-Jan-25 14:34N 45°39' W 122°44'2 1.6
2015-Jan-25 13:33N 45°38' W 122°42'0 0.0
2015-Jan-25 12:33N 45°38' W 122°42'0 0.0
2015-Jan-25 11:33N 45°38' W 122°42'0 0.0
2015-Jan-25 10:32N 45°38' W 122°42'0 0.0
2015-Jan-25 09:33N 45°38' W 122°42'0 0.0
2015-Jan-25 08:33N 45°38' W 122°42'0 0.0
2015-Jan-25 07:33N 45°38' W 122°42'0 0.0
2015-Jan-25 06:33N 45°38' W 122°42'0 0.0
2015-Jan-25 05:33N 45°38' W 122°42'0 0.0
2015-Jan-25 04:33N 45°38' W 122°42'0 0.0
2015-Jan-25 03:34N 45°38' W 122°42'0 0.0
2015-Jan-25 02:33N 45°38' W 122°42'0 0.0
2015-Jan-25 01:33N 45°38' W 122°42'0 0.0
2015-Jan-25 00:34N 45°38' W 122°42'0 0.0
2015-Jan-24 23:33N 45°38' W 122°42'0 0.0
2015-Jan-24 22:33N 45°38' W 122°42'0 0.0
2015-Jan-24 21:33N 45°38' W 122°42'0 0.0
2015-Jan-24 20:33N 45°38' W 122°42'0 0.0
2015-Jan-24 19:33N 45°38' W 122°42'0 0.0
2015-Jan-24 18:33N 45°38' W 122°42'0 0.0
2015-Jan-24 17:33N 45°38' W 122°42'0 0.0
2015-Jan-24 16:33N 45°38' W 122°42'0 0.0
2015-Jan-24 15:33N 45°38' W 122°42'0 0.0
2015-Jan-24 14:33N 45°38' W 122°42'3 3.2
2015-Jan-24 13:34N 45°40' W 122°46'8 8.0
2015-Jan-24 12:33N 45°48' W 122°47'10 9.9
2015-Jan-24 11:33N 45°58' W 122°49'9 9.4
2015-Jan-24 10:33N 46°06' W 122°56'9 9.4
2015-Jan-24 09:34N 46°11' W 123°07'9 9.2
2015-Jan-24 08:33N 46°08' W 123°20'8 7.5
2015-Jan-24 07:33N 46°15' W 123°26'9 9.1
2015-Jan-24 06:33N 46°16' W 123°39'9 8.7
2015-Jan-24 05:34N 46°12' W 123°50'8 7.9
2015-Jan-24 04:34N 46°15' W 124°01'8 8.0
2015-Jan-24 03:34N 46°11' W 124°10'4 4.5
2015-Jan-24 02:34N 46°12' W 124°17'0 0.4
2015-Jan-24 01:33N 46°12' W 124°16'1212.3
2015-Jan-24 00:33N 46°12' W 124°34'1413.9
2015-Jan-23 23:33N 46°12' W 124°54'1413.9
2015-Jan-23 22:33N 46°13' W 125°14'  
Track history (hours):
 
Tides and Currents Weather Stations Pressure Air Temp Water Temp Dewpoint Dewpoint Depression Visibility Wind Speed Wind Dir Waves Ship Positions

Diamond Orchid

Last reported at 2015-Feb-01 23:33 UTC. Time now 2015-Feb-02 00:15 UTC.
Position N 33°46' W 118°14'.

Length 144 m; draft 5.5 m.

Type: Tanker. MMSI: 565789000.

Date/timePositionNaut miles runAvg speedWind from/ knotsBaromVisibWave heightAir tempDewpointWater temp
2015-Feb-01 23:33N 33°46' W 118°14'0 0.0
2015-Feb-01 22:33N 33°46' W 118°14'0 0.0
2015-Feb-01 21:33N 33°46' W 118°14'0 0.0
2015-Feb-01 20:33N 33°46' W 118°14'0 0.0
2015-Feb-01 19:33N 33°46' W 118°14'0 0.0
2015-Feb-01 18:33N 33°46' W 118°14'0 0.0
2015-Feb-01 17:33N 33°46' W 118°14'0 0.0
2015-Feb-01 16:21N 33°46' W 118°14'0 0.0
2015-Feb-01 15:33N 33°46' W 118°14'2 2.2
2015-Feb-01 14:33N 33°45' W 118°17'7 7.2
2015-Feb-01 13:33N 33°38' W 118°14'8 7.7
2015-Feb-01 12:33N 33°37' W 118°23'1111.4
2015-Feb-01 11:33N 33°43' W 118°35'1411.9
2015-Feb-01 10:22N 33°50' W 118°50'3813.0
2015-Feb-01 07:29N 34°06' W 119°31'5713.6
2015-Feb-01 03:18N 34°21' W 120°37'810.9
2015-Feb-01 02:33N 34°23' W 120°47'6114.1
2015-Jan-31 22:12N 34°53' W 121°52'914.5
2015-Jan-31 21:33N 34°58' W 122°02'2914.7
2015-Jan-31 19:33N 35°22' W 122°23'1514.9
2015-Jan-31 18:33N 35°34' W 122°33'1514.7
2015-Jan-31 17:33N 35°46' W 122°43'1614.7
2015-Jan-31 16:30N 35°60' W 122°54'1414.6
2015-Jan-31 15:33N 36°11' W 123°03'1514.7
2015-Jan-31 14:33N 36°23' W 123°13'1614.5
2015-Jan-31 13:25N 36°37' W 123°24'1213.7
2015-Jan-31 12:33N 36°49' W 123°25'1414.2
2015-Jan-31 11:33N 37°03' W 123°21'1414.2
2015-Jan-31 10:33N 37°17' W 123°18'1413.9
2015-Jan-31 09:34N 37°30' W 123°12'1313.2
2015-Jan-31 08:34N 37°37' W 122°58'1413.7
2015-Jan-31 07:33N 37°45' W 122°44'1111.0
2015-Jan-31 06:34N 37°48' W 122°31'9 9.2
2015-Jan-31 05:33N 37°45' W 122°20'0 0.3
2015-Jan-31 04:31N 37°45' W 122°20'0 0.0
2015-Jan-31 03:31N 37°45' W 122°20'0 0.0
2015-Jan-31 02:31N 37°45' W 122°20'0 0.0
2015-Jan-31 01:31N 37°45' W 122°20'0 0.1
2015-Jan-31 00:31N 37°45' W 122°20'0 0.1
2015-Jan-30 23:33N 37°45' W 122°20'0 0.0
2015-Jan-30 22:33N 37°45' W 122°20'0 0.0
2015-Jan-30 21:33N 37°45' W 122°20'2 2.2
2015-Jan-30 20:33N 37°47' W 122°21'8 8.1
2015-Jan-30 19:33N 37°55' W 122°24'2 1.9
2015-Jan-30 18:32N 37°55' W 122°22'0 0.0
2015-Jan-30 17:32N 37°55' W 122°22'0 0.0
2015-Jan-30 16:14N 37°55' W 122°22'0 0.0
2015-Jan-30 15:26N 37°55' W 122°22'0 0.0
2015-Jan-30 13:32N 37°55' W 122°22'0 0.0
2015-Jan-30 11:20N 37°55' W 122°22'0 0.0
2015-Jan-30 10:26N 37°55' W 122°22'0 0.0
2015-Jan-30 09:11N 37°55' W 122°22'0 0.0
2015-Jan-30 08:14N 37°55' W 122°22'0 0.0
2015-Jan-30 07:08N 37°55' W 122°22'0 0.0
2015-Jan-30 06:32N 37°55' W 122°22'0 0.0
2015-Jan-30 05:32N 37°55' W 122°22'0 0.0
2015-Jan-30 04:32N 37°55' W 122°22'0 0.0
2015-Jan-30 03:32N 37°55' W 122°22'0 0.0
2015-Jan-30 02:32N 37°55' W 122°22'0 0.0
2015-Jan-30 01:32N 37°55' W 122°22'0 0.0
2015-Jan-30 00:32N 37°55' W 122°22'0 0.0
2015-Jan-29 23:32N 37°55' W 122°22'0 0.0
2015-Jan-29 22:32N 37°55' W 122°22'0 0.0
2015-Jan-29 21:29N 37°55' W 122°22'0 0.0
2015-Jan-29 20:32N 37°55' W 122°22'0 0.0
2015-Jan-29 19:32N 37°55' W 122°22'0 0.0
2015-Jan-29 18:32N 37°55' W 122°22'0 0.0
2015-Jan-29 17:32N 37°55' W 122°22'0 0.0
2015-Jan-29 16:32N 37°55' W 122°22'0 0.0
2015-Jan-29 15:32N 37°55' W 122°22'0 0.0
2015-Jan-29 14:32N 37°55' W 122°22'0 0.2
2015-Jan-29 13:32N 37°55' W 122°22'0 0.3
2015-Jan-29 12:32N 37°55' W 122°22'0 0.0
2015-Jan-29 11:32N 37°55' W 122°22'0 0.0
2015-Jan-29 10:32N 37°55' W 122°22'0 0.0
2015-Jan-29 09:29N 37°55' W 122°22'0 0.0
2015-Jan-29 08:26N 37°55' W 122°22'0 0.0
2015-Jan-29 07:32N 37°55' W 122°22'0 0.0
2015-Jan-29 06:32N 37°55' W 122°22'0 0.0
2015-Jan-29 05:32N 37°55' W 122°22'0 0.0
2015-Jan-29 04:32N 37°55' W 122°22'0 0.0
2015-Jan-29 03:32N 37°55' W 122°22'0 0.0
2015-Jan-29 02:32N 37°55' W 122°22'0 0.0
2015-Jan-29 01:32N 37°55' W 122°22'0 0.0
2015-Jan-29 00:32N 37°55' W 122°22'0 0.0
2015-Jan-28 23:32N 37°55' W 122°22'0 0.0
2015-Jan-28 22:32N 37°55' W 122°22'0 0.0
2015-Jan-28 21:32N 37°55' W 122°22'0 0.0
2015-Jan-28 20:32N 37°55' W 122°22'0 0.0
2015-Jan-28 19:32N 37°55' W 122°22'0 0.0
2015-Jan-28 18:32N 37°55' W 122°22'0 0.0
2015-Jan-28 17:29N 37°55' W 122°22'0 0.0
2015-Jan-28 16:32N 37°55' W 122°22'3 2.8
2015-Jan-28 15:33N 37°54' W 122°25'1010.3
2015-Jan-28 14:33N 37°47' W 122°34'10 9.9
2015-Jan-28 13:33N 37°42' W 122°45'1111.2
2015-Jan-28 12:33N 37°36' W 122°57'1211.9
2015-Jan-28 11:33N 37°30' W 123°10'1312.5
2015-Jan-28 10:33N 37°33' W 123°26'6 6.1
2015-Jan-28 09:31N 37°35' W 123°33'0 0.1
2015-Jan-28 08:04N 37°35' W 123°33'1 0.2
2015-Jan-28 05:16N 37°34' W 123°34'0 0.5
2015-Jan-28 04:22N 37°34' W 123°34'0 0.2
2015-Jan-28 03:27N 37°33' W 123°34'6 6.3
2015-Jan-28 02:33N 37°35' W 123°27'5 4.9
2015-Jan-28 01:31N 37°36' W 123°21'1 0.9
2015-Jan-28 00:31N 37°35' W 123°21'1 0.9
2015-Jan-27 23:19N 37°34' W 123°20'1 0.8
2015-Jan-27 22:31N 37°33' W 123°20'1 0.9
2015-Jan-27 21:31N 37°33' W 123°19'1 1.0
2015-Jan-27 20:19N 37°32' W 123°17'1 0.9
2015-Jan-27 19:31N 37°32' W 123°16'1 0.7
2015-Jan-27 18:31N 37°32' W 123°16'6 6.0
2015-Jan-27 17:34N 37°36' W 123°20'1313.4
2015-Jan-27 16:33N 37°43' W 123°35'1413.5
2015-Jan-27 15:33N 37°50' W 123°50'1110.6
2015-Jan-27 14:33N 37°59' W 123°57'1413.6
2015-Jan-27 13:33N 38°10' W 124°07'1313.5
2015-Jan-27 12:33N 38°21' W 124°16'1413.9
2015-Jan-27 11:33N 38°33' W 124°26'35113.0
2015-Jan-26 08:33N 44°19' W 125°40'1713.0
2015-Jan-26 07:14N 44°37' W 125°40'1512.8
2015-Jan-26 06:04N 44°50' W 125°31'713.5
2015-Jan-26 05:33N 44°56' W 125°25'1313.4
2015-Jan-26 04:33N 45°07' W 125°15'1313.1
2015-Jan-26 03:33N 45°18' W 125°05'1312.7
2015-Jan-26 02:33N 45°28' W 124°54'1312.9
2015-Jan-26 01:33N 45°39' W 124°44'1313.3
2015-Jan-26 00:33N 45°50' W 124°34'1413.5
2015-Jan-25 23:33N 46°01' W 124°23'1313.1
2015-Jan-25 22:33N 46°12' W 124°13'10 9.9
2015-Jan-25 21:34N 46°14' W 123°59'9 9.5
2015-Jan-25 20:34N 46°13' W 123°45'1313.1
2015-Jan-25 19:33N 46°15' W 123°26'10 9.6
2015-Jan-25 18:33N 46°10' W 123°14'1111.3
2015-Jan-25 17:33N 46°07' W 122°59'9 9.0
2015-Jan-25 16:32N 45°59' W 122°51'1111.0
2015-Jan-25 15:33N 45°49' W 122°48'1010.4
2015-Jan-25 14:34N 45°39' W 122°44'2 1.6
2015-Jan-25 13:33N 45°38' W 122°42'0 0.0
2015-Jan-25 12:33N 45°38' W 122°42'0 0.0
2015-Jan-25 11:33N 45°38' W 122°42'0 0.0
2015-Jan-25 10:32N 45°38' W 122°42'0 0.0
2015-Jan-25 09:33N 45°38' W 122°42'0 0.0
2015-Jan-25 08:33N 45°38' W 122°42'0 0.0
2015-Jan-25 07:33N 45°38' W 122°42'0 0.0
2015-Jan-25 06:33N 45°38' W 122°42'0 0.0
2015-Jan-25 05:33N 45°38' W 122°42'0 0.0
2015-Jan-25 04:33N 45°38' W 122°42'0 0.0
2015-Jan-25 03:34N 45°38' W 122°42'0 0.0
2015-Jan-25 02:33N 45°38' W 122°42'0 0.0
2015-Jan-25 01:33N 45°38' W 122°42'0 0.0
2015-Jan-25 00:34N 45°38' W 122°42'0 0.0
2015-Jan-24 23:33N 45°38' W 122°42'0 0.0
2015-Jan-24 22:33N 45°38' W 122°42'0 0.0
2015-Jan-24 21:33N 45°38' W 122°42'0 0.0
2015-Jan-24 20:33N 45°38' W 122°42'0 0.0
2015-Jan-24 19:33N 45°38' W 122°42'0 0.0
2015-Jan-24 18:33N 45°38' W 122°42'0 0.0
2015-Jan-24 17:33N 45°38' W 122°42'0 0.0
2015-Jan-24 16:33N 45°38' W 122°42'0 0.0
2015-Jan-24 15:33N 45°38' W 122°42'0 0.0
2015-Jan-24 14:33N 45°38' W 122°42'3 3.2
2015-Jan-24 13:34N 45°40' W 122°46'8 8.0
2015-Jan-24 12:33N 45°48' W 122°47'10 9.9
2015-Jan-24 11:33N 45°58' W 122°49'9 9.4
2015-Jan-24 10:33N 46°06' W 122°56'9 9.4
2015-Jan-24 09:34N 46°11' W 123°07'9 9.2
2015-Jan-24 08:33N 46°08' W 123°20'8 7.5
2015-Jan-24 07:33N 46°15' W 123°26'9 9.1
2015-Jan-24 06:33N 46°16' W 123°39'9 8.7
2015-Jan-24 05:34N 46°12' W 123°50'8 7.9
2015-Jan-24 04:34N 46°15' W 124°01'8 8.0
2015-Jan-24 03:34N 46°11' W 124°10'4 4.5
2015-Jan-24 02:34N 46°12' W 124°17'0 0.4
2015-Jan-24 01:33N 46°12' W 124°16'1212.3
2015-Jan-24 00:33N 46°12' W 124°34'1413.9
2015-Jan-23 23:33N 46°12' W 124°54'1413.9
2015-Jan-23 22:33N 46°13' W 125°14'  

Dump ship's entire track history